Time;durP1;ratioP1;P1;durP2;ratioP2;P2;SDS_P1;SDS_P2;PMS_P1;PMS_P2;Temp;Humidity;BMP_temperature;BMP_pressure;BME280_temperature;BME280_humidity;BME280_pressure;Samples;Min_cycle;Max_cycle;Signal;HPM_P1;HPM_P2
2021/09/24 00:00:48;;;;;;;;;;;;;;;;;;5080061;28;19934;-65
2021/09/24 00:03:15;;;;;;;;;;;;;;;;;;5078089;28;20100;-65
2021/09/24 00:05:42;;;;;;;;;;;;;;;;;;5077386;28;19925;-63
2021/09/24 00:08:09;;;;;;;;;;;;;;;;;;5077377;28;19930;-64
2021/09/24 00:10:36;;;;;;;;;;;;;;;;;;5079770;28;20402;-64
2021/09/24 00:13:03;;;;;;;;;;;;;;;;;;5078631;28;19924;-63
2021/09/24 00:15:30;;;;;;;;;;;;;;;;;;5077173;28;19925;-64
2021/09/24 00:17:57;;;;;;;;;;;;;;;;;;5077218;28;20373;-64
2021/09/24 00:20:24;;;;;;;;;;;;;;;;;;5079702;28;19951;-64
2021/09/24 00:22:51;;;;;;;;;;;;;;;;;;5078336;28;19931;-64
2021/09/24 00:25:18;;;;;;;;;;;;;;;;;;5077046;28;19935;-64
2021/09/24 00:27:45;;;;;;;;;;;;;;;;;;5076729;28;19931;-63
2021/09/24 00:30:12;;;;;;;;;;;;;;;;;;5068936;28;20568;-63
2021/09/24 00:32:39;;;;;;;;;;;;;;;;;;5078574;28;19924;-63
2021/09/24 00:35:06;;;;;;;;;;;;;;;;;;5076822;28;19925;-63
2021/09/24 00:37:32;;;;;;;;;;;;;;;;;;5076400;28;19924;-63
2021/09/24 00:39:59;;;;;;;;;;;;;;;;;;5079025;28;20392;-63
2021/09/24 00:42:26;;;;;;;;;;;;;;;;;;5078674;28;20583;-63
2021/09/24 00:44:53;;;;;;;;;;;;;;;;;;5076543;28;19925;-63
2021/09/24 00:47:20;;;;;;;;;;;;;;;;;;5076679;28;19924;-63
2021/09/24 00:49:47;;;;;;;;;;;;;;;;;;5078173;28;20002;-64
2021/09/24 00:52:14;;;;;;;;;;;;;;;;;;5078602;28;20394;-64
2021/09/24 00:54:41;;;;;;;;;;;;;;;;;;5076577;28;19956;-64
2021/09/24 00:57:09;;;;;;;;;;;;;;;;;;5076404;28;19924;-64
2021/09/24 00:59:36;;;;;;;;;;;;;;;;;;5077712;28;19925;-64
2021/09/24 01:02:02;;;;;;;;;;;;;;;;;;5078759;28;20538;-64
2021/09/24 01:04:29;;;;;;;;;;;;;;;;;;5075948;28;20327;-65
2021/09/24 01:06:56;;;;;;;;;;;;;;;;;;5076381;28;19935;-64
2021/09/24 01:09:23;;;;;;;;;;;;;;;;;;5077533;28;19925;-63
2021/09/24 01:11:51;;;;;;;;;;;;;;;;;;5078145;28;19924;-64
2021/09/24 01:14:18;;;;;;;;;;;;;;;;;;5076270;28;19928;-65
2021/09/24 01:16:45;;;;;;;;;;;;;;;;;;5075787;28;19935;-64
2021/09/24 01:19:12;;;;;;;;;;;;;;;;;;5077142;28;20296;-64
2021/09/24 01:21:42;;;;;;;;;;;;;;;;;;5078945;28;20297;-64
2021/09/24 01:24:09;;;;;;;;;;;;;;;;;;5076122;28;19932;-64
2021/09/24 01:26:36;;;;;;;;;;;;;;;;;;5075764;28;20417;-64
2021/09/24 01:29:03;;;;;;;;;;;;;;;;;;5077401;28;19925;-64
2021/09/24 01:31:30;;;;;;;;;;;;;;;;;;5078671;28;19924;-64
2021/09/24 01:33:57;;;;;;;;;;;;;;;;;;5076120;28;20011;-64
2021/09/24 01:36:24;;;;;;;;;;;;;;;;;;5075691;28;20399;-64
2021/09/24 01:38:51;;;;;;;;;;;;;;;;;;5076812;28;19925;-64
2021/09/24 01:41:18;;;;;;;;;;;;;;;;;;5078960;28;19928;-64
2021/09/24 01:43:45;;;;;;;;;;;;;;;;;;5075179;28;19931;-64
2021/09/24 01:46:12;;;;;;;;;;;;;;;;;;5068718;28;20447;-63
2021/09/24 01:48:39;;;;;;;;;;;;;;;;;;5076316;28;20239;-64
2021/09/24 01:51:06;;;;;;;;;;;;;;;;;;5078900;28;19928;-64
2021/09/24 01:53:33;;;;;;;;;;;;;;;;;;5075754;28;19924;-65
2021/09/24 01:56:00;;;;;;;;;;;;;;;;;;5075601;28;19931;-63
2021/09/24 01:58:27;;;;;;;;;;;;;;;;;;5076127;28;20352;-63
2021/09/24 02:00:54;;;;;;;;;;;;;;;;;;5079474;28;19930;-63
2021/09/24 02:03:21;;;;;;;;;;;;;;;;;;5078879;28;20303;-63
2021/09/24 02:05:48;;;;;;;;;;;;;;;;;;5076984;28;19943;-63
2021/09/24 02:08:15;;;;;;;;;;;;;;;;;;5076843;28;19925;-63
2021/09/24 02:10:42;;;;;;;;;;;;;;;;;;5079691;28;20403;-63
2021/09/24 02:13:09;;;;;;;;;;;;;;;;;;5076386;28;19924;-63
2021/09/24 02:15:35;;;;;;;;;;;;;;;;;;5076219;28;19931;-63
2021/09/24 02:18:02;;;;;;;;;;;;;;;;;;5076142;28;19924;-63
2021/09/24 02:20:29;;;;;;;;;;;;;;;;;;5079417;28;19924;-64
2021/09/24 02:22:56;;;;;;;;;;;;;;;;;;5078234;28;19924;-64
2021/09/24 02:25:23;;;;;;;;;;;;;;;;;;5080426;28;19924;-64
2021/09/24 02:27:50;;;;;;;;;;;;;;;;;;5079501;28;19931;-65
2021/09/24 02:30:17;;;;;;;;;;;;;;;;;;5082962;28;20224;-65
2021/09/24 02:32:44;;;;;;;;;;;;;;;;;;5079853;28;19928;-64
2021/09/24 02:35:11;;;;;;;;;;;;;;;;;;5079392;28;19929;-65
2021/09/24 02:37:38;;;;;;;;;;;;;;;;;;5079554;28;19929;-64
2021/09/24 02:40:05;;;;;;;;;;;;;;;;;;5082099;28;19924;-64
2021/09/24 02:42:32;;;;;;;;;;;;;;;;;;5079723;28;19924;-64
2021/09/24 02:44:59;;;;;;;;;;;;;;;;;;5079206;28;19931;-64
2021/09/24 02:47:26;;;;;;;;;;;;;;;;;;5079210;28;19924;-64
2021/09/24 02:49:53;;;;;;;;;;;;;;;;;;5081529;28;20014;-65
2021/09/24 02:52:20;;;;;;;;;;;;;;;;;;5080357;28;20311;-65
2021/09/24 02:54:46;;;;;;;;;;;;;;;;;;5078956;28;20290;-64
2021/09/24 02:57:13;;;;;;;;;;;;;;;;;;5078441;28;20452;-66
2021/09/24 02:59:40;;;;;;;;;;;;;;;;;;5075542;28;19924;-64
2021/09/24 03:02:07;;;;;;;;;;;;;;;;;;5080386;28;20145;-63
2021/09/24 03:04:34;;;;;;;;;;;;;;;;;;5078796;28;20311;-62
2021/09/24 03:07:01;;;;;;;;;;;;;;;;;;5078379;28;20380;-63
2021/09/24 03:09:28;;;;;;;;;;;;;;;;;;5080529;28;19939;-64
2021/09/24 03:11:55;;;;;;;;;;;;;;;;;;5080339;28;19924;-65
2021/09/24 03:14:22;;;;;;;;;;;;;;;;;;5078515;28;19924;-65
2021/09/24 03:16:49;;;;;;;;;;;;;;;;;;5078618;28;20323;-65
2021/09/24 03:19:19;;;;;;;;;;;;;;;;;;5080099;28;20042;-64
2021/09/24 03:21:46;;;;;;;;;;;;;;;;;;5080312;28;20413;-64
2021/09/24 03:24:13;;;;;;;;;;;;;;;;;;5077976;28;19931;-65
2021/09/24 03:26:40;;;;;;;;;;;;;;;;;;5078122;28;19924;-65
2021/09/24 03:29:07;;;;;;;;;;;;;;;;;;5079978;28;19924;-65
2021/09/24 03:31:34;;;;;;;;;;;;;;;;;;5080385;28;19960;-65
2021/09/24 03:34:01;;;;;;;;;;;;;;;;;;5077358;28;20011;-65
2021/09/24 03:36:28;;;;;;;;;;;;;;;;;;5077835;28;20311;-65
2021/09/24 03:38:55;;;;;;;;;;;;;;;;;;5079457;28;19925;-64
2021/09/24 03:41:22;;;;;;;;;;;;;;;;;;5080222;28;19954;-64
2021/09/24 03:43:49;;;;;;;;;;;;;;;;;;5078234;28;19925;-64
2021/09/24 03:46:16;;;;;;;;;;;;;;;;;;5077638;28;19924;-65
2021/09/24 03:48:43;;;;;;;;;;;;;;;;;;5079298;28;19924;-64
2021/09/24 03:51:10;;;;;;;;;;;;;;;;;;5079957;28;19931;-65
2021/09/24 03:53:37;;;;;;;;;;;;;;;;;;5077194;28;19924;-64
2021/09/24 03:56:04;;;;;;;;;;;;;;;;;;5077506;28;19928;-67
2021/09/24 03:58:31;;;;;;;;;;;;;;;;;;5078880;28;19924;-64
2021/09/24 04:00:58;;;;;;;;;;;;;;;;;;5080054;28;19928;-65
2021/09/24 04:03:25;;;;;;;;;;;;;;;;;;5077577;28;19925;-65
2021/09/24 04:05:52;;;;;;;;;;;;;;;;;;5077156;28;19946;-65
2021/09/24 04:08:19;;;;;;;;;;;;;;;;;;5078472;28;20011;-65
2021/09/24 04:10:46;;;;;;;;;;;;;;;;;;5080435;28;19924;-67
2021/09/24 04:13:13;;;;;;;;;;;;;;;;;;5077063;28;19931;-65
2021/09/24 04:15:40;;;;;;;;;;;;;;;;;;5073191;28;19963;-67
2021/09/24 04:18:07;;;;;;;;;;;;;;;;;;5077897;28;19931;-65
2021/09/24 04:20:34;;;;;;;;;;;;;;;;;;5080156;28;20002;-67
2021/09/24 04:23:01;;;;;;;;;;;;;;;;;;5077160;28;19925;-65
2021/09/24 04:25:28;;;;;;;;;;;;;;;;;;5077672;28;20202;-65
2021/09/24 04:27:55;;;;;;;;;;;;;;;;;;5077417;28;20371;-65
2021/09/24 04:30:22;;;;;;;;;;;;;;;;;;5080546;28;19947;-64
2021/09/24 04:32:49;;;;;;;;;;;;;;;;;;5077599;28;19932;-65
2021/09/24 04:35:16;;;;;;;;;;;;;;;;;;5076800;28;19935;-65
2021/09/24 04:37:43;;;;;;;;;;;;;;;;;;5076783;28;20018;-65
2021/09/24 04:40:10;;;;;;;;;;;;;;;;;;5080510;28;19924;-63
2021/09/24 04:42:37;;;;;;;;;;;;;;;;;;5076321;28;19925;-64
2021/09/24 04:45:04;;;;;;;;;;;;;;;;;;5076714;28;20052;-63
2021/09/24 04:47:31;;;;;;;;;;;;;;;;;;5076143;28;19924;-66
2021/09/24 04:49:58;;;;;;;;;;;;;;;;;;5073763;28;20018;-64
2021/09/24 04:52:25;;;;;;;;;;;;;;;;;;5077035;28;20322;-63
2021/09/24 04:54:53;;;;;;;;;;;;;;;;;;5076511;28;19930;-64
2021/09/24 04:57:20;;;;;;;;;;;;;;;;;;5076879;28;20392;-65
2021/09/24 04:59:47;;;;;;;;;;;;;;;;;;5079812;28;19932;-65
2021/09/24 05:02:14;;;;;;;;;;;;;;;;;;5076632;28;19925;-65
2021/09/24 05:04:41;;;;;;;;;;;;;;;;;;5076625;28;19924;-63
2021/09/24 05:07:08;;;;;;;;;;;;;;;;;;5076616;28;19928;-65
2021/09/24 05:09:35;;;;;;;;;;;;;;;;;;5079573;28;20311;-63
2021/09/24 05:12:02;;;;;;;;;;;;;;;;;;5076959;28;20314;-67
2021/09/24 05:14:29;;;;;;;;;;;;;;;;;;5076782;28;19931;-65
2021/09/24 05:16:56;;;;;;;;;;;;;;;;;;5075993;28;20388;-66
2021/09/24 05:19:23;;;;;;;;;;;;;;;;;;5076596;28;20296;-63
2021/09/24 05:21:50;;;;;;;;;;;;;;;;;;5077203;28;20023;-65
2021/09/24 05:24:17;;;;;;;;;;;;;;;;;;5076229;28;19931;-65
2021/09/24 05:26:44;;;;;;;;;;;;;;;;;;5075831;28;19930;-65
2021/09/24 05:29:11;;;;;;;;;;;;;;;;;;5073951;28;20014;-64
2021/09/24 05:31:38;;;;;;;;;;;;;;;;;;5077761;28;19934;-64
2021/09/24 05:34:05;;;;;;;;;;;;;;;;;;5076261;28;19924;-62
2021/09/24 05:36:32;;;;;;;;;;;;;;;;;;5076069;28;19982;-64
2021/09/24 05:38:59;;;;;;;;;;;;;;;;;;5078377;28;19928;-65
2021/09/24 05:41:26;;;;;;;;;;;;;;;;;;5077687;28;19924;-64
2021/09/24 05:43:53;;;;;;;;;;;;;;;;;;5075585;28;19924;-64
2021/09/24 05:46:20;;;;;;;;;;;;;;;;;;5075641;28;19925;-64
2021/09/24 05:48:47;;;;;;;;;;;;;;;;;;5078058;28;19932;-65
2021/09/24 05:51:14;;;;;;;;;;;;;;;;;;5077593;28;19931;-64
2021/09/24 05:53:41;;;;;;;;;;;;;;;;;;5076106;28;19925;-65
2021/09/24 05:56:08;;;;;;;;;;;;;;;;;;5075654;28;19931;-64
2021/09/24 05:58:37;;;;;;;;;;;;;;;;;;5083445;28;20261;-65
2021/09/24 06:01:04;;;;;;;;;;;;;;;;;;5083911;28;19930;-64
2021/09/24 06:03:31;;;;;;;;;;;;;;;;;;5082279;28;19925;-64
2021/09/24 06:05:58;;;;;;;;;;;;;;;;;;5079400;28;20308;-64
2021/09/24 06:08:26;;;;;;;;;;;;;;;;;;5084692;28;19931;-64
2021/09/24 06:10:53;;;;;;;;;;;;;;;;;;5083868;28;19924;-65
2021/09/24 06:13:20;;;;;;;;;;;;;;;;;;5082247;28;20392;-65
2021/09/24 06:15:48;;;;;;;;;;;;;;;;;;5081951;28;19994;-65
2021/09/24 06:18:15;;;;;;;;;;;;;;;;;;5083560;28;20368;-65
2021/09/24 06:20:42;;;;;;;;;;;;;;;;;;5084179;28;19924;-63
2021/09/24 06:23:09;;;;;;;;;;;;;;;;;;5081889;28;19936;-63
2021/09/24 06:25:36;;;;;;;;;;;;;;;;;;5082434;28;19930;-64
2021/09/24 06:28:03;;;;;;;;;;;;;;;;;;5083808;28;20292;-65
2021/09/24 06:30:30;;;;;;;;;;;;;;;;;;5084432;28;19931;-65
2021/09/24 06:32:57;;;;;;;;;;;;;;;;;;5082057;28;19924;-65
2021/09/24 06:35:24;;;;;;;;;;;;;;;;;;5081771;28;20304;-64
2021/09/24 06:37:51;;;;;;;;;;;;;;;;;;5083454;28;19924;-64
2021/09/24 06:40:18;;;;;;;;;;;;;;;;;;5084556;28;19924;-64
2021/09/24 06:42:45;;;;;;;;;;;;;;;;;;5081843;28;19925;-64
2021/09/24 06:45:12;;;;;;;;;;;;;;;;;;5075519;28;19924;-64
2021/09/24 06:47:39;;;;;;;;;;;;;;;;;;5083026;28;20393;-65
2021/09/24 06:50:06;;;;;;;;;;;;;;;;;;5084910;28;20327;-64
2021/09/24 06:52:33;;;;;;;;;;;;;;;;;;5081683;28;19929;-65
2021/09/24 06:55:00;;;;;;;;;;;;;;;;;;5082228;28;19932;-64
2021/09/24 06:57:27;;;;;;;;;;;;;;;;;;5082703;28;19931;-64
2021/09/24 06:59:54;;;;;;;;;;;;;;;;;;5084970;28;20280;-64
2021/09/24 07:02:21;;;;;;;;;;;;;;;;;;5081533;28;19928;-65
2021/09/24 07:04:49;;;;;;;;;;;;;;;;;;5081837;28;19924;-64
2021/09/24 07:07:16;;;;;;;;;;;;;;;;;;5082177;28;19932;-64
2021/09/24 07:09:43;;;;;;;;;;;;;;;;;;5081726;28;20362;-65
2021/09/24 07:12:10;;;;;;;;;;;;;;;;;;5078605;28;19929;-64
2021/09/24 07:14:37;;;;;;;;;;;;;;;;;;5078802;28;19924;-64
2021/09/24 07:17:05;;;;;;;;;;;;;;;;;;5079033;28;19924;-64
2021/09/24 07:19:32;;;;;;;;;;;;;;;;;;5081739;28;20087;-64
2021/09/24 07:21:59;;;;;;;;;;;;;;;;;;5078777;28;20404;-64
2021/09/24 07:24:26;;;;;;;;;;;;;;;;;;5078572;28;20000;-64
2021/09/24 07:26:53;;;;;;;;;;;;;;;;;;5078773;28;19982;-64
2021/09/24 07:29:20;;;;;;;;;;;;;;;;;;5081868;28;19998;-64
2021/09/24 07:31:47;;;;;;;;;;;;;;;;;;5078076;28;19931;-65
2021/09/24 07:34:14;;;;;;;;;;;;;;;;;;5077760;28;19925;-65
2021/09/24 07:36:41;;;;;;;;;;;;;;;;;;5078175;28;19931;-65
2021/09/24 07:39:08;;;;;;;;;;;;;;;;;;5081819;28;19998;-65
2021/09/24 07:41:35;;;;;;;;;;;;;;;;;;5077739;28;20453;-64
2021/09/24 07:44:03;;;;;;;;;;;;;;;;;;5077794;28;20308;-64
2021/09/24 07:46:30;;;;;;;;;;;;;;;;;;5077418;28;19994;-64
2021/09/24 07:48:58;;;;;;;;;;;;;;;;;;5081405;28;19928;-64
2021/09/24 07:51:25;;;;;;;;;;;;;;;;;;5077595;28;20273;-63
2021/09/24 07:53:52;;;;;;;;;;;;;;;;;;5077657;28;19925;-65
2021/09/24 07:56:19;;;;;;;;;;;;;;;;;;5077726;28;19924;-64
2021/09/24 07:58:46;;;;;;;;;;;;;;;;;;5071574;28;20358;-64
2021/09/24 08:01:13;;;;;;;;;;;;;;;;;;5076600;28;19924;-65
2021/09/24 08:03:40;;;;;;;;;;;;;;;;;;5077415;28;19925;-64
2021/09/24 08:06:07;;;;;;;;;;;;;;;;;;5077362;28;19931;-65
2021/09/24 08:08:34;;;;;;;;;;;;;;;;;;5081112;28;19981;-64
2021/09/24 08:11:00;;;;;;;;;;;;;;;;;;5078036;28;19936;-64
2021/09/24 08:13:27;;;;;;;;;;;;;;;;;;5077290;28;19925;-64
2021/09/24 08:15:54;;;;;;;;;;;;;;;;;;5077186;28;20289;-64
2021/09/24 08:18:21;;;;;;;;;;;;;;;;;;5080389;28;19925;-64
2021/09/24 08:20:48;;;;;;;;;;;;;;;;;;5077713;28;19924;-64
2021/09/24 08:23:15;;;;;;;;;;;;;;;;;;5076958;28;19959;-64
2021/09/24 08:25:42;;;;;;;;;;;;;;;;;;5074334;28;19931;-64
2021/09/24 08:28:09;;;;;;;;;;;;;;;;;;5081505;28;20043;-63
2021/09/24 08:30:36;;;;;;;;;;;;;;;;;;5078343;28;19924;-66
2021/09/24 08:33:03;;;;;;;;;;;;;;;;;;5077207;28;19925;-66
2021/09/24 08:35:30;;;;;;;;;;;;;;;;;;5077157;28;19925;-66
2021/09/24 08:37:57;;;;;;;;;;;;;;;;;;5079663;28;19925;-66
2021/09/24 08:40:24;;;;;;;;;;;;;;;;;;5078050;28;19924;-65
2021/09/24 08:42:51;;;;;;;;;;;;;;;;;;5076346;28;19924;-66
2021/09/24 08:45:23;;;;;;;;;;;;;;;;;;5076946;28;19935;-66
2021/09/24 08:47:50;;;;;;;;;;;;;;;;;;5079588;28;19934;-66
2021/09/24 08:50:17;;;;;;;;;;;;;;;;;;5077483;28;19928;-66
2021/09/24 08:52:44;;;;;;;;;;;;;;;;;;5076500;28;19925;-67
2021/09/24 08:55:11;;;;;;;;;;;;;;;;;;5076565;28;19930;-66
2021/09/24 08:57:38;;;;;;;;;;;;;;;;;;5079013;28;20410;-66
2021/09/24 09:00:05;;;;;;;;;;;;;;;;;;5077842;28;19924;-67
2021/09/24 09:02:32;;;;;;;;;;;;;;;;;;5076040;28;20008;-67
2021/09/24 09:05:01;;;;;;;;;;;;;;;;;;5076469;28;20379;-65
2021/09/24 09:07:28;;;;;;;;;;;;;;;;;;5078757;28;19994;-65
2021/09/24 09:09:55;;;;;;;;;;;;;;;;;;5077491;28;20399;-65
2021/09/24 09:12:22;;;;;;;;;;;;;;;;;;5076410;28;20402;-63
2021/09/24 09:14:49;;;;;;;;;;;;;;;;;;5072186;28;19924;-64
2021/09/24 09:17:16;;;;;;;;;;;;;;;;;;5078275;28;20377;-66
2021/09/24 09:19:43;;;;;;;;;;;;;;;;;;5077768;28;19931;-66
2021/09/24 09:22:10;;;;;;;;;;;;;;;;;;5076110;28;20372;-64
2021/09/24 09:24:37;;;;;;;;;;;;;;;;;;5075929;28;19928;-68
2021/09/24 09:27:04;;;;;;;;;;;;;;;;;;5078141;28;20011;-64
2021/09/24 09:29:31;;;;;;;;;;;;;;;;;;5077918;28;19924;-65
2021/09/24 09:31:58;;;;;;;;;;;;;;;;;;5075235;28;19925;-64
2021/09/24 09:34:25;;;;;;;;;;;;;;;;;;5075615;28;20431;-64
2021/09/24 09:36:52;;;;;;;;;;;;;;;;;;5077659;28;19924;-64
2021/09/24 09:39:19;;;;;;;;;;;;;;;;;;5077624;28;19924;-65
2021/09/24 09:41:46;;;;;;;;;;;;;;;;;;5075901;28;19931;-64
2021/09/24 09:44:13;;;;;;;;;;;;;;;;;;5103961;22;20019;-66
2021/09/24 09:46:40;;;;;;;;;;;;;;;;;;5091556;28;19928;-69
2021/09/24 09:49:06;;;;;;;;;;;;;;;;;;5091251;28;19925;-66
2021/09/24 09:51:33;;;;;;;;;;;;;;;;;;5091743;28;20209;-69
2021/09/24 09:54:00;;;;;;;;;;;;;;;;;;5091545;28;20431;-68
2021/09/24 09:56:27;;;;;;;;;;;;;;;;;;5091787;28;19947;-67
2021/09/24 09:58:54;;;;;;;;;;;;;;;;;;5091699;28;19971;-67
2021/09/24 10:01:22;;;;;;;;;;;;;;;;;;5091163;28;19924;-67
2021/09/24 10:03:49;;;;;;;;;;;;;;;;;;5091788;28;20344;-67
2021/09/24 10:06:16;;;;;;;;;;;;;;;;;;5091961;28;20299;-68
2021/09/24 10:08:42;;;;;;;;;;;;;;;;;;5091180;28;19924;-68
2021/09/24 10:11:12;;;;;;;;;;;;;;;;;;5091274;28;19928;-68
2021/09/24 10:13:39;;;;;;;;;;;;;;;;;;5091484;28;20467;-66
2021/09/24 10:16:06;;;;;;;;;;;;;;;;;;5091491;28;19930;-68
2021/09/24 10:18:33;;;;;;;;;;;;;;;;;;5091535;28;19930;-70
2021/09/24 10:21:00;;;;;;;;;;;;;;;;;;5091308;28;19928;-66
2021/09/24 10:23:27;;;;;;;;;;;;;;;;;;5091236;28;19933;-69
2021/09/24 10:25:54;;;;;;;;;;;;;;;;;;5091312;28;19975;-66
2021/09/24 10:28:20;;;;;;;;;;;;;;;;;;5090963;28;19934;-69
2021/09/24 10:30:47;;;;;;;;;;;;;;;;;;5080601;28;19924;-68
2021/09/24 10:33:16;;;;;;;;;;;;;;;;;;5090866;28;19999;-65
2021/09/24 10:35:43;;;;;;;;;;;;;;;;;;5091301;28;20311;-71
2021/09/24 10:38:10;;;;;;;;;;;;;;;;;;5091384;28;20034;-72
2021/09/24 10:40:37;;;;;;;;;;;;;;;;;;5090586;28;19931;-71
2021/09/24 10:43:04;;;;;;;;;;;;;;;;;;5091352;28;19931;-68
2021/09/24 10:45:31;;;;;;;;;;;;;;;;;;5094780;28;19931;-67
2021/09/24 10:47:58;;;;;;;;;;;;;;;;;;5094637;28;19930;-68
2021/09/24 10:50:24;;;;;;;;;;;;;;;;;;5094263;28;20015;-66
2021/09/24 10:52:51;;;;;;;;;;;;;;;;;;5094876;28;20303;-68
2021/09/24 10:55:18;;;;;;;;;;;;;;;;;;5095182;28;19924;-67
2021/09/24 10:57:45;;;;;;;;;;;;;;;;;;5094326;28;19924;-67
2021/09/24 11:00:12;;;;;;;;;;;;;;;;;;5094366;28;19924;-66
2021/09/24 11:02:40;;;;;;;;;;;;;;;;;;5099687;28;19928;-70
2021/09/24 11:05:07;;;;;;;;;;;;;;;;;;5102046;28;19924;-68
2021/09/24 11:07:34;;;;;;;;;;;;;;;;;;5100888;28;20197;-70
2021/09/24 11:10:01;;;;;;;;;;;;;;;;;;5095280;28;19939;-66
2021/09/24 11:12:27;;;;;;;;;;;;;;;;;;5094487;28;19930;-66
2021/09/24 11:14:54;;;;;;;;;;;;;;;;;;5094470;28;19931;-66
2021/09/24 11:17:21;;;;;;;;;;;;;;;;;;5094294;28;19931;-69
2021/09/24 11:19:49;;;;;;;;;;;;;;;;;;5094291;28;19935;-66
2021/09/24 11:22:16;;;;;;;;;;;;;;;;;;5094583;28;19931;-68
2021/09/24 11:24:43;;;;;;;;;;;;;;;;;;5094376;28;19930;-67
2021/09/24 11:27:11;;;;;;;;;;;;;;;;;;5094349;28;19931;-65
2021/09/24 11:29:37;;;;;;;;;;;;;;;;;;5093530;28;20569;-66
2021/09/24 11:32:04;;;;;;;;;;;;;;;;;;5094429;28;19950;-69
2021/09/24 11:34:31;;;;;;;;;;;;;;;;;;5094274;28;19924;-66
2021/09/24 11:36:58;;;;;;;;;;;;;;;;;;5093941;28;19931;-67
2021/09/24 11:39:25;;;;;;;;;;;;;;;;;;5094045;28;19967;-69
2021/09/24 11:41:52;;;;;;;;;;;;;;;;;;5093885;28;20014;-66
2021/09/24 11:44:19;;;;;;;;;;;;;;;;;;5086385;28;19975;-67
2021/09/24 11:46:46;;;;;;;;;;;;;;;;;;5093074;28;20281;-66
2021/09/24 11:49:13;;;;;;;;;;;;;;;;;;5093637;28;19931;-69
2021/09/24 11:51:40;;;;;;;;;;;;;;;;;;5093777;28;19928;-66
2021/09/24 11:54:07;;;;;;;;;;;;;;;;;;5094278;28;20083;-66
2021/09/24 11:56:34;;;;;;;;;;;;;;;;;;5093114;28;19924;-68
2021/09/24 11:59:01;;;;;;;;;;;;;;;;;;5093316;28;19924;-67
2021/09/24 12:01:28;;;;;;;;;;;;;;;;;;5093533;28;20398;-66
2021/09/24 12:03:55;;;;;;;;;;;;;;;;;;5094312;28;19930;-66
2021/09/24 12:06:22;;;;;;;;;;;;;;;;;;5093981;28;20015;-68
2021/09/24 12:08:50;;;;;;;;;;;;;;;;;;5093375;28;19971;-66
2021/09/24 12:11:17;;;;;;;;;;;;;;;;;;5093337;28;20388;-66
2021/09/24 12:13:44;;;;;;;;;;;;;;;;;;5093763;28;19923;-66
2021/09/24 12:16:11;;;;;;;;;;;;;;;;;;5093563;28;19930;-65
2021/09/24 12:18:38;;;;;;;;;;;;;;;;;;5093292;28;20295;-67
2021/09/24 12:21:05;;;;;;;;;;;;;;;;;;5093338;28;19924;-66
2021/09/24 12:23:32;;;;;;;;;;;;;;;;;;5093338;28;19924;-69
2021/09/24 12:25:59;;;;;;;;;;;;;;;;;;5092857;28;19924;-67
2021/09/24 12:28:26;;;;;;;;;;;;;;;;;;5093221;28;20327;-67
2021/09/24 12:30:53;;;;;;;;;;;;;;;;;;5092901;28;20027;-66
2021/09/24 12:33:22;;;;;;;;;;;;;;;;;;5093135;28;19928;-66
2021/09/24 12:35:49;;;;;;;;;;;;;;;;;;5093027;28;20313;-69
2021/09/24 12:38:16;;;;;;;;;;;;;;;;;;5092625;28;19979;-67
2021/09/24 12:40:43;;;;;;;;;;;;;;;;;;5093270;28;20303;-67
2021/09/24 12:43:10;;;;;;;;;;;;;;;;;;5092485;28;19928;-66
2021/09/24 12:45:38;;;;;;;;;;;;;;;;;;5093350;28;19924;-68
2021/09/24 12:48:05;;;;;;;;;;;;;;;;;;5089950;28;19950;-69
2021/09/24 12:50:32;;;;;;;;;;;;;;;;;;5093332;28;20276;-68
2021/09/24 12:52:59;;;;;;;;;;;;;;;;;;5092431;28;19924;-70
2021/09/24 12:55:26;;;;;;;;;;;;;;;;;;5092746;28;19924;-66
2021/09/24 12:57:53;;;;;;;;;;;;;;;;;;5092509;28;19924;-70
2021/09/24 13:00:20;;;;;;;;;;;;;;;;;;5085486;28;19928;-67
2021/09/24 13:02:47;;;;;;;;;;;;;;;;;;5092799;28;19924;-67
2021/09/24 13:05:19;;;;;;;;;;;;;;;;;;5092357;28;20006;-68
2021/09/24 13:07:46;;;;;;;;;;;;;;;;;;5091382;28;19924;-66
2021/09/24 13:10:13;;;;;;;;;;;;;;;;;;5092435;28;19924;-68
2021/09/24 13:12:40;;;;;;;;;;;;;;;;;;5094771;28;19928;-67
2021/09/24 13:15:07;;;;;;;;;;;;;;;;;;5092980;28;19970;-70
2021/09/24 13:17:34;;;;;;;;;;;;;;;;;;5092304;28;19924;-66
2021/09/24 13:20:01;;;;;;;;;;;;;;;;;;5092108;28;19931;-66
2021/09/24 13:22:28;;;;;;;;;;;;;;;;;;5092786;28;19924;-67
2021/09/24 13:24:55;;;;;;;;;;;;;;;;;;5092721;28;19924;-67
2021/09/24 13:27:22;;;;;;;;;;;;;;;;;;5092239;28;19935;-65
2021/09/24 13:29:49;;;;;;;;;;;;;;;;;;5092012;28;20026;-67
2021/09/24 13:32:16;;;;;;;;;;;;;;;;;;5092003;28;20019;-66
2021/09/24 13:34:43;;;;;;;;;;;;;;;;;;5092488;28;19925;-66
2021/09/24 13:37:10;;;;;;;;;;;;;;;;;;5092461;28;19924;-70
2021/09/24 13:39:37;;;;;;;;;;;;;;;;;;5092293;28;19931;-67
2021/09/24 13:42:04;;;;;;;;;;;;;;;;;;5092279;28;19931;-67
2021/09/24 13:44:31;;;;;;;;;;;;;;;;;;5092073;28;19931;-66
2021/09/24 13:46:58;;;;;;;;;;;;;;;;;;5092053;28;19924;-67
2021/09/24 13:49:25;;;;;;;;;;;;;;;;;;5079939;28;19936;-68
2021/09/24 13:51:52;;;;;;;;;;;;;;;;;;5091954;28;20451;-67
2021/09/24 13:54:19;;;;;;;;;;;;;;;;;;5092004;28;19924;-69
2021/09/24 13:56:46;;;;;;;;;;;;;;;;;;5092141;28;20289;-68
2021/09/24 13:59:12;;;;;;;;;;;;;;;;;;5091572;28;20291;-70
2021/09/24 14:01:39;;;;;;;;;;;;;;;;;;5091739;28;20347;-67
2021/09/24 14:04:06;;;;;;;;;;;;;;;;;;5089988;28;20058;-66
2021/09/24 14:06:34;;;;;;;;;;;;;;;;;;5092147;28;19924;-66
2021/09/24 14:09:01;;;;;;;;;;;;;;;;;;5091858;28;19982;-70
2021/09/24 14:11:28;;;;;;;;;;;;;;;;;;5091529;28;20011;-67
2021/09/24 14:13:55;;;;;;;;;;;;;;;;;;5085102;28;19924;-66
2021/09/24 14:16:22;;;;;;;;;;;;;;;;;;5089616;28;19931;-67
2021/09/24 14:18:49;;;;;;;;;;;;;;;;;;5093251;28;19924;-67
2021/09/24 14:21:16;;;;;;;;;;;;;;;;;;5095830;28;19971;-68
2021/09/24 14:23:43;;;;;;;;;;;;;;;;;;5095846;28;19924;-67
2021/09/24 14:26:10;;;;;;;;;;;;;;;;;;5095981;28;19924;-69
2021/09/24 14:28:36;;;;;;;;;;;;;;;;;;5095446;28;19934;-66
2021/09/24 14:31:03;;;;;;;;;;;;;;;;;;5093714;28;20308;-69
2021/09/24 14:33:30;;;;;;;;;;;;;;;;;;5094594;28;19928;-70
2021/09/24 14:35:57;;;;;;;;;;;;;;;;;;5095402;28;19924;-68
2021/09/24 14:38:25;;;;;;;;;;;;;;;;;;5095121;28;20296;-68
2021/09/24 14:40:52;;;;;;;;;;;;;;;;;;5094810;28;19923;-67
2021/09/24 14:43:19;;;;;;;;;;;;;;;;;;5094827;28;19975;-68
2021/09/24 14:45:46;;;;;;;;;;;;;;;;;;5095062;28;19931;-68
2021/09/24 14:48:13;;;;;;;;;;;;;;;;;;5095573;28;19925;-67
2021/09/24 14:50:40;;;;;;;;;;;;;;;;;;5094819;28;19943;-69
2021/09/24 14:53:08;;;;;;;;;;;;;;;;;;5094859;28;20304;-67
2021/09/24 14:55:35;;;;;;;;;;;;;;;;;;5094960;28;19924;-66
2021/09/24 14:58:02;;;;;;;;;;;;;;;;;;5094521;28;19924;-70
2021/09/24 15:00:29;;;;;;;;;;;;;;;;;;5094959;28;19924;-67
2021/09/24 15:02:56;;;;;;;;;;;;;;;;;;5094871;28;20352;-66
2021/09/24 15:05:23;;;;;;;;;;;;;;;;;;5095029;28;19979;-66
2021/09/24 15:07:50;;;;;;;;;;;;;;;;;;5094310;28;20396;-66
2021/09/24 15:10:17;;;;;;;;;;;;;;;;;;5094466;28;20003;-68
2021/09/24 15:12:44;;;;;;;;;;;;;;;;;;5094228;28;19924;-66
2021/09/24 15:15:11;;;;;;;;;;;;;;;;;;5094476;28;19937;-69
2021/09/24 15:17:38;;;;;;;;;;;;;;;;;;5094181;28;19924;-67
2021/09/24 15:20:05;;;;;;;;;;;;;;;;;;5094364;28;19930;-66
2021/09/24 15:22:33;;;;;;;;;;;;;;;;;;5094274;28;19978;-67
2021/09/24 15:25:00;;;;;;;;;;;;;;;;;;5093861;28;19924;-67
2021/09/24 15:27:27;;;;;;;;;;;;;;;;;;5094271;28;19931;-67
2021/09/24 15:29:54;;;;;;;;;;;;;;;;;;5089788;28;19978;-67
2021/09/24 15:32:21;;;;;;;;;;;;;;;;;;5093886;28;19935;-70
2021/09/24 15:34:48;;;;;;;;;;;;;;;;;;5093968;28;19930;-68
2021/09/24 15:37:17;;;;;;;;;;;;;;;;;;5093997;28;20303;-67
2021/09/24 15:39:44;;;;;;;;;;;;;;;;;;5093887;28;19923;-67
2021/09/24 15:42:11;;;;;;;;;;;;;;;;;;5110159;22;19928;-65
2021/09/24 15:44:38;;;;;;;;;;;;;;;;;;5092751;28;19970;-67
2021/09/24 15:47:05;;;;;;;;;;;;;;;;;;5093552;28;20391;-68
2021/09/24 15:49:32;;;;;;;;;;;;;;;;;;5093793;28;19924;-67
2021/09/24 15:51:59;;;;;;;;;;;;;;;;;;5093641;28;19924;-67
2021/09/24 15:54:26;;;;;;;;;;;;;;;;;;5093721;28;19924;-68
2021/09/24 15:56:53;;;;;;;;;;;;;;;;;;5093892;28;20375;-67
2021/09/24 15:59:20;;;;;;;;;;;;;;;;;;5093419;28;19924;-68
2021/09/24 16:01:49;;;;;;;;;;;;;;;;;;5094041;28;19931;-68
2021/09/24 16:04:16;;;;;;;;;;;;;;;;;;5093403;28;20022;-66
2021/09/24 16:06:43;;;;;;;;;;;;;;;;;;5093239;28;20431;-68
2021/09/24 16:09:10;;;;;;;;;;;;;;;;;;5092952;28;19924;-68
2021/09/24 16:11:37;;;;;;;;;;;;;;;;;;5093261;28;19924;-65
2021/09/24 16:14:04;;;;;;;;;;;;;;;;;;5092990;28;19930;-68
2021/09/24 16:16:31;;;;;;;;;;;;;;;;;;5092894;28;19934;-67
2021/09/24 16:18:58;;;;;;;;;;;;;;;;;;5092924;28;19931;-67
2021/09/24 16:21:25;;;;;;;;;;;;;;;;;;5092435;28;20155;-67
2021/09/24 16:23:52;;;;;;;;;;;;;;;;;;5093125;28;19935;-68
2021/09/24 16:26:19;;;;;;;;;;;;;;;;;;5092855;28;19928;-67
2021/09/24 16:28:46;;;;;;;;;;;;;;;;;;5093043;28;19932;-68
2021/09/24 16:31:13;;;;;;;;;;;;;;;;;;5092483;28;19931;-68
2021/09/24 16:33:39;;;;;;;;;;;;;;;;;;5092651;28;19924;-67
2021/09/24 16:36:06;;;;;;;;;;;;;;;;;;5092909;28;20273;-68
2021/09/24 16:38:33;;;;;;;;;;;;;;;;;;5092693;28;19924;-68
2021/09/24 16:41:00;;;;;;;;;;;;;;;;;;5092382;28;19924;-67
2021/09/24 16:43:27;;;;;;;;;;;;;;;;;;5091612;28;19938;-66